createdAt,value
2019-01-28T00:02:21.697Z,8.53
2019-01-28T00:04:50.152Z,8.90
2019-01-28T00:07:18.614Z,8.70
2019-01-28T00:09:47.131Z,8.87
2019-01-28T00:12:15.576Z,8.83
2019-01-28T00:14:44.030Z,7.70
2019-01-28T00:17:12.516Z,8.90
2019-01-28T00:19:40.968Z,7.53
2019-01-28T00:22:09.422Z,8.70
2019-01-28T00:24:38.195Z,7.30
2019-01-28T00:27:06.631Z,8.33
2019-01-28T00:29:35.073Z,7.63
2019-01-28T00:32:03.542Z,8.00
2019-01-28T00:34:31.999Z,7.93
2019-01-28T00:37:00.445Z,7.37
2019-01-28T00:39:31.466Z,8.77
2019-01-28T00:41:59.919Z,7.37
2019-01-28T00:44:28.364Z,7.53
2019-01-28T00:46:56.858Z,7.97
2019-01-28T00:49:25.320Z,8.07
2019-01-28T00:51:53.757Z,7.87
2019-01-28T00:54:22.233Z,7.60
2019-01-28T00:56:50.712Z,8.10
2019-01-28T00:59:19.130Z,7.40
2019-01-28T01:01:47.618Z,7.87
2019-01-28T01:04:16.061Z,8.13
2019-01-28T01:06:44.511Z,8.43
2019-01-28T01:09:12.988Z,7.80
2019-01-28T01:11:41.426Z,8.33
2019-01-28T01:14:09.872Z,8.13
2019-01-28T01:16:38.351Z,8.10
2019-01-28T01:19:06.793Z,8.60
2019-01-28T01:21:35.393Z,8.67
2019-01-28T01:24:03.888Z,7.43
2019-01-28T01:26:32.756Z,7.87
2019-01-28T01:29:01.220Z,7.30
2019-01-28T01:31:29.694Z,7.07
2019-01-28T01:33:58.144Z,7.50
2019-01-28T01:36:26.595Z,7.33
2019-01-28T01:38:55.100Z,7.43
2019-01-28T01:41:23.543Z,9.10
2019-01-28T01:43:52.080Z,8.00
2019-01-28T01:46:20.619Z,8.60
2019-01-28T01:48:49.080Z,8.30
2019-01-28T01:51:17.531Z,7.67
2019-01-28T01:53:46.024Z,8.63
2019-01-28T01:56:14.489Z,9.40
2019-01-28T01:58:42.944Z,9.30
2019-01-28T02:01:11.459Z,9.20
2019-01-28T02:03:39.919Z,9.20
2019-01-28T02:06:08.504Z,10.63
2019-01-28T02:08:36.976Z,10.33
2019-01-28T02:11:05.604Z,10.20
2019-01-28T02:13:34.059Z,10.07
2019-01-28T02:16:02.560Z,11.00
2019-01-28T02:18:31.020Z,12.27
2019-01-28T02:20:59.469Z,11.57
2019-01-28T02:23:27.977Z,11.70
2019-01-28T02:25:56.432Z,11.73
2019-01-28T02:28:33.718Z,11.80
2019-01-28T02:31:02.113Z,11.60
2019-01-28T02:33:30.579Z,11.13
2019-01-28T02:35:59.056Z,12.13
2019-01-28T02:38:27.504Z,11.70
2019-01-28T02:40:55.977Z,12.20
2019-01-28T02:43:24.461Z,12.23
2019-01-28T02:45:52.927Z,13.53
2019-01-28T02:48:21.364Z,13.50
2019-01-28T02:50:49.856Z,11.87
2019-01-28T02:53:18.315Z,14.23
2019-01-28T02:55:46.769Z,13.37
2019-01-28T02:58:15.256Z,13.10
2019-01-28T03:00:43.714Z,13.77
2019-01-28T03:03:12.170Z,12.13
2019-01-28T03:05:40.665Z,13.07
2019-01-28T03:08:09.141Z,12.00
2019-01-28T03:10:37.606Z,13.43
2019-01-28T03:13:06.096Z,12.97
2019-01-28T03:15:34.608Z,13.80
2019-01-28T03:18:03.069Z,12.93
2019-01-28T03:20:31.554Z,12.47
2019-01-28T03:23:00.007Z,11.20
2019-01-28T03:25:28.461Z,12.40
2019-01-28T03:27:56.947Z,12.20
2019-01-28T03:30:25.395Z,11.60
2019-01-28T03:32:53.984Z,12.10
2019-01-28T03:35:22.468Z,10.77
2019-01-28T03:37:50.928Z,12.40
2019-01-28T03:40:20.820Z,9.60
2019-01-28T03:42:50.345Z,9.07
2019-01-28T03:45:21.192Z,8.80
2019-01-28T03:47:49.722Z,7.97
2019-01-28T03:50:18.975Z,8.07
2019-01-28T03:52:47.559Z,8.30
2019-01-28T03:55:16.093Z,7.80
2019-01-28T03:57:44.637Z,8.23
2019-01-28T04:00:15.883Z,7.60
2019-01-28T04:02:44.541Z,7.10
2019-01-28T04:05:13.104Z,6.93
2019-01-28T04:07:41.538Z,7.47
2019-01-28T04:10:13.220Z,6.73
2019-01-28T04:12:41.696Z,6.23
2019-01-28T04:15:12.880Z,6.43
2019-01-28T04:17:41.312Z,6.23
2019-01-28T04:20:12.348Z,6.40
2019-01-28T04:22:40.791Z,6.13
2019-01-28T04:25:10.780Z,6.17
2019-01-28T04:27:39.266Z,6.90
2019-01-28T04:30:22.044Z,6.27
2019-01-28T04:32:50.484Z,5.80
2019-01-28T04:35:19.207Z,4.93
2019-01-28T04:37:47.655Z,7.27
2019-01-28T04:40:16.615Z,4.90
2019-01-28T04:42:45.466Z,6.00
2019-01-28T04:45:20.274Z,5.23
2019-01-28T04:47:49.397Z,5.87
2019-01-28T04:50:19.908Z,5.50
2019-01-28T04:52:48.471Z,6.50
2019-01-28T04:55:17.181Z,6.43
2019-01-28T04:57:45.787Z,6.53
2019-01-28T05:00:25.610Z,6.53
2019-01-28T05:02:54.050Z,5.87
2019-01-28T05:05:22.654Z,6.03
2019-01-28T05:07:51.132Z,4.93
2019-01-28T05:10:21.119Z,5.90
2019-01-28T05:12:49.584Z,4.90
2019-01-28T05:15:19.592Z,5.90
2019-01-28T05:17:48.364Z,5.40
2019-01-28T05:20:21.722Z,5.30
2019-01-28T05:22:50.265Z,5.60
2019-01-28T05:25:18.793Z,6.20
2019-01-28T05:27:47.367Z,5.60
2019-01-28T05:30:20.899Z,5.60
2019-01-28T05:32:49.504Z,5.63
2019-01-28T05:35:19.206Z,6.23
2019-01-28T05:37:47.911Z,6.40
2019-01-28T05:40:21.354Z,6.03
2019-01-28T05:42:49.799Z,7.50
2019-01-28T05:45:20.022Z,5.80
2019-01-28T05:47:48.468Z,6.57
2019-01-28T05:50:17.080Z,5.90
2019-01-28T05:52:46.950Z,5.70
2019-01-28T05:55:19.120Z,5.83
2019-01-28T05:57:48.404Z,5.00
2019-01-28T06:00:19.557Z,5.70
2019-01-28T06:02:48.010Z,6.10
2019-01-28T06:05:16.595Z,6.20
2019-01-28T06:07:45.093Z,5.47
2019-01-28T06:10:15.480Z,6.70
2019-01-28T06:12:44.004Z,6.03
2019-01-28T06:15:19.567Z,5.70
2019-01-28T06:17:48.011Z,5.57
2019-01-28T06:20:21.631Z,7.57
2019-01-28T06:22:50.115Z,6.10
2019-01-28T06:25:18.641Z,7.30
2019-01-28T06:27:47.160Z,6.43
2019-01-28T06:30:24.729Z,7.27
2019-01-28T06:32:53.169Z,7.70
2019-01-28T06:35:21.617Z,7.57
2019-01-28T06:37:50.129Z,7.80
2019-01-28T06:40:25.330Z,7.97
2019-01-28T06:42:53.848Z,7.07
2019-01-28T06:45:22.349Z,8.30
2019-01-28T06:47:50.868Z,7.30
2019-01-28T06:50:21.155Z,7.30
2019-01-28T06:52:49.795Z,7.97
2019-01-28T06:55:19.278Z,7.87
2019-01-28T06:57:48.452Z,7.80
2019-01-28T07:00:22.800Z,8.00
2019-01-28T07:02:51.322Z,6.60
2019-01-28T07:05:19.771Z,6.70
2019-01-28T07:07:48.255Z,7.90
2019-01-28T07:10:16.768Z,7.90
2019-01-28T07:12:45.280Z,6.33
2019-01-28T07:15:16.718Z,7.67
2019-01-28T07:17:45.166Z,7.70
2019-01-28T07:20:19.351Z,7.60
2019-01-28T07:22:47.893Z,6.90
2019-01-28T07:25:16.405Z,7.13
2019-01-28T07:27:44.922Z,6.80
2019-01-28T07:30:16.565Z,8.07
2019-01-28T07:32:45.016Z,9.10
2019-01-28T07:35:13.933Z,9.90
2019-01-28T07:37:42.429Z,8.87
2019-01-28T07:40:14.018Z,8.53
2019-01-28T07:42:42.815Z,7.87
2019-01-28T07:45:20.233Z,8.57
2019-01-28T07:47:48.682Z,9.13
2019-01-28T07:50:17.136Z,8.33
2019-01-28T07:52:45.633Z,10.07
2019-01-28T07:55:14.265Z,11.00
2019-01-28T07:57:42.879Z,9.80
2019-01-28T08:00:17.064Z,9.63
2019-01-28T08:02:45.525Z,9.83
2019-01-28T08:05:15.617Z,10.00
2019-01-28T08:07:44.130Z,7.93
2019-01-28T08:10:15.216Z,8.70
2019-01-28T08:12:43.821Z,10.13
2019-01-28T08:15:15.443Z,9.50
2019-01-28T08:17:43.967Z,10.83
2019-01-28T08:20:14.549Z,9.93
2019-01-28T08:22:43.050Z,9.03
2019-01-28T08:25:13.941Z,9.50
2019-01-28T08:27:42.566Z,9.20
2019-01-28T08:30:25.161Z,9.10
2019-01-28T08:32:53.612Z,8.97
2019-01-28T08:35:22.295Z,9.17
2019-01-28T08:37:50.785Z,8.90
2019-01-28T08:40:20.895Z,8.13
2019-01-28T08:42:49.411Z,8.10
2019-01-28T08:45:18.158Z,8.00
2019-01-28T08:47:46.614Z,8.60
2019-01-28T08:50:20.472Z,10.33
2019-01-28T08:52:48.959Z,8.10
2019-01-28T08:55:19.469Z,9.00
2019-01-28T08:57:48.051Z,8.00
2019-01-28T09:00:22.176Z,7.57
2019-01-28T09:02:50.635Z,8.07
2019-01-28T09:05:19.836Z,7.67
2019-01-28T09:07:48.394Z,8.33
2019-01-28T09:10:20.089Z,8.67
2019-01-28T09:12:48.545Z,8.73
2019-01-28T09:15:19.596Z,9.40
2019-01-28T09:17:48.273Z,6.67
2019-01-28T09:20:19.063Z,18.87
2019-01-28T09:22:47.554Z,8.60
2019-01-28T09:25:16.950Z,7.50
2019-01-28T09:27:45.384Z,6.80
2019-01-28T09:30:19.864Z,6.87
2019-01-28T09:32:48.302Z,6.80
2019-01-28T09:35:16.831Z,6.83
2019-01-28T09:37:45.327Z,6.10
2019-01-28T09:40:16.781Z,6.40
2019-01-28T09:42:45.232Z,6.10
2019-01-28T09:45:18.313Z,6.50
2019-01-28T09:47:47.198Z,5.93
2019-01-28T09:50:17.392Z,6.10
2019-01-28T09:52:46.021Z,5.87
2019-01-28T09:55:15.138Z,6.70
2019-01-28T09:57:43.660Z,6.30
2019-01-28T10:00:18.678Z,7.80
2019-01-28T10:02:47.120Z,6.33
2019-01-28T10:05:16.011Z,5.73
2019-01-28T10:07:44.502Z,6.83
2019-01-28T10:10:16.368Z,6.33
2019-01-28T10:12:45.164Z,6.27
2019-01-28T10:15:21.164Z,6.20
2019-01-28T10:17:49.603Z,5.87
2019-01-28T10:20:32.743Z,7.40
2019-01-28T10:23:01.190Z,5.83
2019-01-28T10:25:29.858Z,5.93
2019-01-28T10:27:58.487Z,6.80
2019-01-28T10:30:32.377Z,6.00
2019-01-28T10:33:00.957Z,5.73
2019-01-28T10:35:31.288Z,6.93
2019-01-28T10:37:59.737Z,5.30
2019-01-28T10:40:30.933Z,5.60
2019-01-28T10:42:59.864Z,6.13
2019-01-28T10:45:28.380Z,6.03
2019-01-28T10:48:00.746Z,5.80
2019-01-28T10:50:28.269Z,5.90
2019-01-28T10:52:56.883Z,5.90
2019-01-28T10:55:26.092Z,6.10
2019-01-28T10:57:55.183Z,5.40
2019-01-28T11:00:31.858Z,5.20
2019-01-28T11:03:00.772Z,5.77
2019-01-28T11:05:29.353Z,6.87
2019-01-28T11:07:57.925Z,6.00
2019-01-28T11:10:28.536Z,5.60
2019-01-28T11:12:57.365Z,5.03
2019-01-28T11:15:28.334Z,5.57
2019-01-28T11:17:58.322Z,4.43
2019-01-28T11:20:26.903Z,5.43
2019-01-28T11:22:55.464Z,5.10
2019-01-28T11:25:26.831Z,6.73
2019-01-28T11:27:55.244Z,5.53
2019-01-28T11:30:30.934Z,5.10
2019-01-28T11:32:59.505Z,4.73
2019-01-28T11:35:28.044Z,6.77
2019-01-28T11:37:56.749Z,5.30
2019-01-28T11:40:25.294Z,4.70
2019-01-28T11:42:53.716Z,4.10
2019-01-28T11:45:40.159Z,4.80
2019-01-28T11:48:08.772Z,3.90
2019-01-28T11:50:37.387Z,4.50
2019-01-28T11:53:06.031Z,4.67
2019-01-28T11:55:34.558Z,4.33
2019-01-28T11:58:02.997Z,4.10
2019-01-28T12:00:48.075Z,4.10
2019-01-28T12:03:16.520Z,4.83
2019-01-28T12:05:44.962Z,4.50
2019-01-28T12:08:13.585Z,4.70
2019-01-28T12:10:42.040Z,4.60
2019-01-28T12:13:10.547Z,5.47
2019-01-28T12:15:39.031Z,5.20
2019-01-28T12:18:07.497Z,6.33
2019-01-28T12:20:35.929Z,4.60
2019-01-28T12:23:04.565Z,5.17
2019-01-28T12:25:33.010Z,5.10
2019-01-28T12:28:01.452Z,5.10
2019-01-28T12:30:31.474Z,4.53
2019-01-28T12:32:59.933Z,7.43
2019-01-28T12:35:28.412Z,6.90
2019-01-28T12:37:56.886Z,7.40
2019-01-28T12:40:25.579Z,6.87
2019-01-28T12:42:54.031Z,5.20
2019-01-28T12:45:27.825Z,7.77
2019-01-28T12:47:56.509Z,5.70
2019-01-28T12:50:26.278Z,5.90
2019-01-28T12:52:54.770Z,4.73
2019-01-28T12:55:27.269Z,4.83
2019-01-28T12:57:55.722Z,4.90
2019-01-28T13:00:28.501Z,5.67
2019-01-28T13:02:56.943Z,5.70
2019-01-28T13:05:26.220Z,4.90
2019-01-28T13:07:54.711Z,4.40
2019-01-28T13:10:24.983Z,11.00
2019-01-28T13:12:53.602Z,8.37
2019-01-28T13:15:24.784Z,5.20
2019-01-28T13:17:53.574Z,4.93
2019-01-28T13:20:22.553Z,4.80
2019-01-28T13:22:51.132Z,4.40
2019-01-28T13:25:24.887Z,7.20
2019-01-28T13:27:53.339Z,11.33
2019-01-28T13:30:24.667Z,6.40
2019-01-28T13:32:53.659Z,9.07
2019-01-28T13:35:22.097Z,7.10
2019-01-28T13:37:50.575Z,6.23
2019-01-28T13:40:19.085Z,6.97
2019-01-28T13:42:47.537Z,7.27
2019-01-28T13:45:18.605Z,6.40
2019-01-28T13:47:47.688Z,6.30
2019-01-28T13:50:24.111Z,5.70
2019-01-28T13:52:52.827Z,6.20
2019-01-28T13:55:22.714Z,5.93
2019-01-28T13:57:51.266Z,13.57
2019-01-28T14:00:25.584Z,9.93
2019-01-28T14:02:54.183Z,10.37
2019-01-28T14:05:23.008Z,5.27
2019-01-28T14:07:51.534Z,7.50
2019-01-28T14:10:21.625Z,6.20
2019-01-28T14:12:50.181Z,5.30
2019-01-28T14:15:30.497Z,7.70
2019-01-28T14:17:59.059Z,5.60
2019-01-28T14:20:32.893Z,5.17
2019-01-28T14:23:01.532Z,5.30
2019-01-28T14:25:30.092Z,7.50
2019-01-28T14:27:58.559Z,5.43
2019-01-28T14:30:39.489Z,5.10
2019-01-28T14:33:11.227Z,6.10
2019-01-28T14:35:39.952Z,5.40
2019-01-28T14:38:09.783Z,4.90
2019-01-28T14:40:39.169Z,6.47
2019-01-28T14:43:07.753Z,5.77
2019-01-28T14:45:36.252Z,5.77
2019-01-28T14:48:05.951Z,5.37
2019-01-28T14:50:35.962Z,6.10
2019-01-28T14:53:04.954Z,5.80
2019-01-28T14:55:33.407Z,5.10
2019-01-28T14:58:01.928Z,7.60
2019-01-28T15:00:38.859Z,9.53
2019-01-28T15:03:07.297Z,6.47
2019-01-28T15:05:35.824Z,5.13
2019-01-28T15:08:04.929Z,5.30
2019-01-28T15:10:33.371Z,5.93
2019-01-28T15:13:01.828Z,15.30
2019-01-28T15:15:38.696Z,13.20
2019-01-28T15:18:09.205Z,8.43
2019-01-28T15:20:37.646Z,4.57
2019-01-28T15:23:06.454Z,6.67
2019-01-28T15:25:35.054Z,6.85
2019-01-28T15:28:03.500Z,6.83
2019-01-28T15:30:32.566Z,9.00
2019-01-28T15:33:01.289Z,7.60
2019-01-28T15:35:29.804Z,26.50
2019-01-28T15:37:58.280Z,22.83
2019-01-28T15:40:29.079Z,29.53
2019-01-28T15:42:57.517Z,15.10
2019-01-28T15:45:31.252Z,14.50
2019-01-28T15:47:59.765Z,9.23
2019-01-28T15:50:28.313Z,7.73
2019-01-28T15:52:56.789Z,7.43
2019-01-28T15:55:28.830Z,6.40
2019-01-28T15:57:57.277Z,5.57
2019-01-28T16:00:31.558Z,5.93
2019-01-28T16:03:00.429Z,5.87
2019-01-28T16:05:28.876Z,5.93
2019-01-28T16:07:57.352Z,6.50
2019-01-28T16:10:25.803Z,7.03
2019-01-28T16:12:54.258Z,5.40
2019-01-28T16:15:34.448Z,6.23
2019-01-28T16:18:02.907Z,7.67
2019-01-28T16:20:31.359Z,7.60
2019-01-28T16:22:59.962Z,7.27
2019-01-28T16:25:28.474Z,6.90
2019-01-28T16:27:56.994Z,6.57
2019-01-28T16:30:30.612Z,6.50
2019-01-28T16:32:59.124Z,7.87
2019-01-28T16:35:27.655Z,8.40
2019-01-28T16:37:56.132Z,9.73
2019-01-28T16:40:31.079Z,9.43
2019-01-28T16:43:00.181Z,9.40
2019-01-28T16:45:30.506Z,8.90
2019-01-28T16:47:58.964Z,9.30
2019-01-28T16:50:32.331Z,8.63
2019-01-28T16:53:00.875Z,7.90
2019-01-28T16:55:29.323Z,8.23
2019-01-28T16:58:00.128Z,10.63
2019-01-28T17:00:31.755Z,9.03
2019-01-28T17:03:00.204Z,9.80
2019-01-28T17:05:28.941Z,8.93
2019-01-28T17:07:57.383Z,7.53
2019-01-28T17:10:25.992Z,7.40
2019-01-28T17:12:54.466Z,7.03
2019-01-28T17:15:23.971Z,8.23
2019-01-28T17:17:52.391Z,7.67
2019-01-28T17:20:35.311Z,8.83
2019-01-28T17:23:00.400Z,8.60
2019-01-28T17:25:34.572Z,8.13
2019-01-28T17:28:03.098Z,7.83
2019-01-28T17:30:39.977Z,8.10
2019-01-28T17:33:08.486Z,7.63
2019-01-28T17:35:37.075Z,9.23
2019-01-28T17:38:07.002Z,8.13
2019-01-28T17:40:35.878Z,8.60
2019-01-28T17:43:04.867Z,7.70
2019-01-28T17:45:33.348Z,8.10
2019-01-28T17:48:01.792Z,9.30
2019-01-28T17:50:30.240Z,7.97
2019-01-28T17:52:58.721Z,9.60
2019-01-28T17:55:27.197Z,9.80
2019-01-28T17:57:55.638Z,9.73
2019-01-28T18:00:30.110Z,11.37
2019-01-28T18:02:58.749Z,11.33
2019-01-28T18:05:27.196Z,12.30
2019-01-28T18:07:55.707Z,10.33
2019-01-28T18:10:24.303Z,9.03
2019-01-28T18:12:52.817Z,9.30
2019-01-28T18:15:24.472Z,7.60
2019-01-28T18:17:52.983Z,8.47
2019-01-28T18:20:21.456Z,7.50
2019-01-28T18:22:50.021Z,7.80
2019-01-28T18:25:24.569Z,7.70
2019-01-28T18:27:53.023Z,7.30
2019-01-28T18:30:25.574Z,9.50
2019-01-28T18:32:54.017Z,9.20
2019-01-28T18:35:22.620Z,9.40
2019-01-28T18:37:51.129Z,9.27
2019-01-28T18:40:19.748Z,12.13
2019-01-28T18:42:48.196Z,14.70
2019-01-28T18:45:20.944Z,15.10
2019-01-28T18:47:49.406Z,12.63
2019-01-28T18:50:19.897Z,11.80
2019-01-28T18:52:48.471Z,11.80
2019-01-28T18:55:19.131Z,12.10
2019-01-28T18:57:47.581Z,11.63
2019-01-28T19:00:30.710Z,11.87
2019-01-28T19:03:00.238Z,13.10
2019-01-28T19:08:23.371Z,11.93
2019-01-28T19:10:53.658Z,11.53
2019-01-28T19:13:23.747Z,12.20
2019-01-28T19:16:11.826Z,11.33
2019-01-28T19:18:41.929Z,11.37
2019-01-28T19:21:12.022Z,11.03
2019-01-28T19:23:40.511Z,11.37
2019-01-28T19:26:08.967Z,12.20
2019-01-28T19:28:37.422Z,11.90
2019-01-28T19:31:05.978Z,12.37
2019-01-28T19:33:34.437Z,11.57
2019-01-28T19:36:02.891Z,11.80
2019-01-28T19:38:31.372Z,13.30
2019-01-28T19:40:59.822Z,13.67
2019-01-28T19:43:28.283Z,13.10
2019-01-28T19:45:56.746Z,12.67
2019-01-28T19:48:25.207Z,13.40
2019-01-28T19:50:54.084Z,13.13
2019-01-28T19:53:22.730Z,11.80
2019-01-28T19:55:51.174Z,10.80
2019-01-28T19:58:19.626Z,10.50
2019-01-28T20:00:48.119Z,8.37
2019-01-28T20:03:16.719Z,10.20
2019-01-28T20:05:45.389Z,10.97
2019-01-28T20:08:15.077Z,11.60
2019-01-28T20:10:43.709Z,11.73
2019-01-28T20:13:12.157Z,12.17
2019-01-28T20:15:40.625Z,11.73
2019-01-28T20:18:09.086Z,12.83
2019-01-28T20:20:37.563Z,11.40
2019-01-28T20:23:06.115Z,11.27
2019-01-28T20:25:35.685Z,12.53
2019-01-28T20:28:04.334Z,12.93
2019-01-28T20:30:32.818Z,11.27
2019-01-28T20:33:01.267Z,12.90
2019-01-28T20:35:30.151Z,12.60
2019-01-28T20:37:58.792Z,11.80
2019-01-28T20:40:27.400Z,10.93
2019-01-28T20:42:55.903Z,12.23
2019-01-28T20:45:25.793Z,11.17
2019-01-28T20:47:55.573Z,12.50
2019-01-28T20:50:28.692Z,10.87
2019-01-28T20:52:57.191Z,11.37
2019-01-28T20:55:25.828Z,11.97
2019-01-28T20:57:54.367Z,10.83
2019-01-28T21:00:26.460Z,12.73
2019-01-28T21:02:54.943Z,12.33
2019-01-28T21:05:24.849Z,12.43
2019-01-28T21:07:54.706Z,12.57
2019-01-28T21:10:23.391Z,10.70
2019-01-28T21:12:53.396Z,10.40
2019-01-28T21:15:22.868Z,11.20
2019-01-28T21:17:51.497Z,10.70
2019-01-28T21:20:23.445Z,12.53
2019-01-28T21:22:52.200Z,11.07
2019-01-28T21:25:22.708Z,12.53
2019-01-28T21:27:51.238Z,12.60
2019-01-28T21:30:34.856Z,12.93
2019-01-28T21:33:03.323Z,13.13
2019-01-28T21:35:49.840Z,13.30
2019-01-28T21:38:19.933Z,12.77
2019-01-28T21:40:48.408Z,11.67
2019-01-28T21:43:17.025Z,13.33
2019-01-28T21:45:45.469Z,12.80
2019-01-28T21:48:13.945Z,12.57
2019-01-28T21:50:42.445Z,10.70
2019-01-28T21:53:10.909Z,12.27
2019-01-28T21:55:39.356Z,9.27
2019-01-28T21:58:07.997Z,9.60
2019-01-28T22:00:36.451Z,9.67
2019-01-28T22:03:05.141Z,9.20
2019-01-28T22:05:33.622Z,10.37
2019-01-28T22:08:02.077Z,9.47
2019-01-28T22:10:30.841Z,8.90
2019-01-28T22:12:59.309Z,8.77
2019-01-28T22:15:27.790Z,10.00
2019-01-28T22:17:56.279Z,9.60
2019-01-28T22:20:24.741Z,9.10
2019-01-28T22:22:53.202Z,10.23
2019-01-28T22:25:21.718Z,9.03
2019-01-28T22:27:57.176Z,8.90
2019-01-28T22:30:23.943Z,10.10
2019-01-28T22:32:52.520Z,9.20
2019-01-28T22:35:21.034Z,9.60
2019-01-28T22:37:49.487Z,10.07
2019-01-28T22:40:18.796Z,9.27
2019-01-28T22:42:47.380Z,9.63
2019-01-28T22:45:17.471Z,8.77
2019-01-28T22:47:46.091Z,8.33
2019-01-28T22:50:18.773Z,10.90
2019-01-28T22:52:47.221Z,9.70
2019-01-28T22:55:17.666Z,10.77
2019-01-28T22:57:46.115Z,10.67
2019-01-28T23:00:21.975Z,11.20
2019-01-28T23:02:50.421Z,11.47
2019-01-28T23:05:18.873Z,10.60
2019-01-28T23:07:47.352Z,11.63
2019-01-28T23:10:15.802Z,10.20
2019-01-28T23:12:44.386Z,12.20
2019-01-28T23:15:13.524Z,11.60
2019-01-28T23:17:41.985Z,11.40
2019-01-28T23:20:10.509Z,11.67
2019-01-28T23:22:39.008Z,11.10
2019-01-28T23:25:07.533Z,12.03
2019-01-28T23:27:35.996Z,11.97
2019-01-28T23:30:07.645Z,11.53
2019-01-28T23:32:36.117Z,11.07
2019-01-28T23:35:07.298Z,11.37
2019-01-28T23:37:35.765Z,12.37
2019-01-28T23:40:06.368Z,12.00
2019-01-28T23:42:34.820Z,11.87
2019-01-28T23:45:03.373Z,11.23
2019-01-28T23:47:31.829Z,12.00
2019-01-28T23:50:00.286Z,13.33
2019-01-28T23:52:28.801Z,15.40
2019-01-28T23:54:57.260Z,14.00
2019-01-28T23:57:25.717Z,16.37
2019-01-28T23:59:54.505Z,15.53
